sensor_id;sensor_type;location;lat;lon;timestamp;P1;durP1;ratioP1;P2;durP2;ratioP2
54909;SDS011;63189;51.240;9.964;2023-05-08T00:01:35;11.20;;;9.20;;
54909;SDS011;63189;51.240;9.964;2023-05-08T00:04:01;10.98;;;9.45;;
54909;SDS011;63189;51.240;9.964;2023-05-08T00:06:26;11.45;;;9.75;;
54909;SDS011;63189;51.240;9.964;2023-05-08T00:08:52;14.00;;;11.75;;
54909;SDS011;63189;51.240;9.964;2023-05-08T00:11:18;15.52;;;12.70;;
54909;SDS011;63189;51.240;9.964;2023-05-08T00:13:44;11.88;;;9.70;;
54909;SDS011;63189;51.240;9.964;2023-05-08T00:16:09;13.82;;;10.68;;
54909;SDS011;63189;51.240;9.964;2023-05-08T00:18:35;12.32;;;10.43;;
54909;SDS011;63189;51.240;9.964;2023-05-08T00:21:02;13.52;;;10.00;;
54909;SDS011;63189;51.240;9.964;2023-05-08T00:23:28;13.38;;;10.00;;
54909;SDS011;63189;51.240;9.964;2023-05-08T00:25:53;12.80;;;10.27;;
54909;SDS011;63189;51.240;9.964;2023-05-08T00:28:19;10.55;;;9.30;;
54909;SDS011;63189;51.240;9.964;2023-05-08T00:30:44;14.02;;;10.00;;
54909;SDS011;63189;51.240;9.964;2023-05-08T00:33:10;12.27;;;10.43;;
54909;SDS011;63189;51.240;9.964;2023-05-08T00:35:35;12.52;;;10.68;;
54909;SDS011;63189;51.240;9.964;2023-05-08T00:38:01;11.45;;;9.85;;
54909;SDS011;63189;51.240;9.964;2023-05-08T00:40:26;12.18;;;9.80;;
54909;SDS011;63189;51.240;9.964;2023-05-08T00:42:52;11.25;;;9.30;;
54909;SDS011;63189;51.240;9.964;2023-05-08T00:45:17;12.45;;;9.75;;
54909;SDS011;63189;51.240;9.964;2023-05-08T00:47:42;12.55;;;10.63;;
54909;SDS011;63189;51.240;9.964;2023-05-08T00:50:08;11.70;;;10.27;;
54909;SDS011;63189;51.240;9.964;2023-05-08T00:52:34;11.70;;;9.95;;
54909;SDS011;63189;51.240;9.964;2023-05-08T00:55:01;11.48;;;9.35;;
54909;SDS011;63189;51.240;9.964;2023-05-08T00:57:28;11.88;;;10.10;;
54909;SDS011;63189;51.240;9.964;2023-05-08T00:59:57;11.98;;;10.43;;
54909;SDS011;63189;51.240;9.964;2023-05-08T01:02:24;11.60;;;9.70;;
54909;SDS011;63189;51.240;9.964;2023-05-08T01:04:51;11.40;;;9.45;;
54909;SDS011;63189;51.240;9.964;2023-05-08T01:07:17;13.55;;;10.38;;
54909;SDS011;63189;51.240;9.964;2023-05-08T01:09:43;11.77;;;9.35;;
54909;SDS011;63189;51.240;9.964;2023-05-08T01:15:10;12.15;;;10.15;;
54909;SDS011;63189;51.240;9.964;2023-05-08T01:31:23;12.07;;;9.52;;
54909;SDS011;63189;51.240;9.964;2023-05-08T01:34:03;14.70;;;10.73;;
54909;SDS011;63189;51.240;9.964;2023-05-08T01:36:36;13.40;;;10.02;;
54909;SDS011;63189;51.240;9.964;2023-05-08T01:39:21;12.25;;;9.98;;
54909;SDS011;63189;51.240;9.964;2023-05-08T01:42:04;13.63;;;11.45;;
54909;SDS011;63189;51.240;9.964;2023-05-08T01:44:35;13.73;;;10.73;;
54909;SDS011;63189;51.240;9.964;2023-05-08T01:47:06;11.50;;;10.18;;
54909;SDS011;63189;51.240;9.964;2023-05-08T01:49:33;14.65;;;10.57;;
54909;SDS011;63189;51.240;9.964;2023-05-08T01:52:06;13.40;;;11.05;;
54909;SDS011;63189;51.240;9.964;2023-05-08T01:55:00;14.60;;;11.90;;
54909;SDS011;63189;51.240;9.964;2023-05-08T01:57:25;15.25;;;11.63;;
54909;SDS011;63189;51.240;9.964;2023-05-08T01:59:54;14.68;;;11.77;;
54909;SDS011;63189;51.240;9.964;2023-05-08T02:02:20;14.05;;;11.70;;
54909;SDS011;63189;51.240;9.964;2023-05-08T02:04:47;15.07;;;11.77;;
54909;SDS011;63189;51.240;9.964;2023-05-08T02:07:13;14.23;;;12.30;;
54909;SDS011;63189;51.240;9.964;2023-05-08T02:09:39;15.57;;;12.23;;
54909;SDS011;63189;51.240;9.964;2023-05-08T02:12:09;15.65;;;12.30;;
54909;SDS011;63189;51.240;9.964;2023-05-08T02:14:36;16.38;;;13.25;;
54909;SDS011;63189;51.240;9.964;2023-05-08T02:17:04;17.83;;;12.57;;
54909;SDS011;63189;51.240;9.964;2023-05-08T02:19:33;16.67;;;12.85;;
54909;SDS011;63189;51.240;9.964;2023-05-08T02:22:03;17.02;;;12.35;;
54909;SDS011;63189;51.240;9.964;2023-05-08T02:24:32;14.50;;;12.77;;
54909;SDS011;63189;51.240;9.964;2023-05-08T02:26:59;18.95;;;13.25;;
54909;SDS011;63189;51.240;9.964;2023-05-08T02:29:25;15.57;;;11.77;;
54909;SDS011;63189;51.240;9.964;2023-05-08T02:31:52;15.18;;;12.60;;
54909;SDS011;63189;51.240;9.964;2023-05-08T02:34:20;16.13;;;12.70;;
54909;SDS011;63189;51.240;9.964;2023-05-08T02:36:48;15.55;;;12.10;;
54909;SDS011;63189;51.240;9.964;2023-05-08T02:39:16;17.75;;;13.45;;
54909;SDS011;63189;51.240;9.964;2023-05-08T02:41:43;15.77;;;12.10;;
54909;SDS011;63189;51.240;9.964;2023-05-08T02:44:09;17.13;;;13.48;;
54909;SDS011;63189;51.240;9.964;2023-05-08T02:46:38;17.00;;;13.10;;
54909;SDS011;63189;51.240;9.964;2023-05-08T02:49:13;16.00;;;12.32;;
54909;SDS011;63189;51.240;9.964;2023-05-08T03:00:16;17.08;;;14.05;;
54909;SDS011;63189;51.240;9.964;2023-05-08T03:03:29;17.08;;;13.77;;
54909;SDS011;63189;51.240;9.964;2023-05-08T03:05:36;16.42;;;13.02;;
54909;SDS011;63189;51.240;9.964;2023-05-08T03:08:06;17.65;;;14.05;;
54909;SDS011;63189;51.240;9.964;2023-05-08T03:10:39;18.85;;;14.75;;
54909;SDS011;63189;51.240;9.964;2023-05-08T03:13:07;18.35;;;13.60;;
54909;SDS011;63189;51.240;9.964;2023-05-08T03:15:36;17.65;;;13.90;;
54909;SDS011;63189;51.240;9.964;2023-05-08T03:18:22;16.10;;;12.98;;
54909;SDS011;63189;51.240;9.964;2023-05-08T03:20:53;17.95;;;14.40;;
54909;SDS011;63189;51.240;9.964;2023-05-08T03:23:22;17.75;;;14.25;;
54909;SDS011;63189;51.240;9.964;2023-05-08T03:25:50;18.40;;;13.82;;
54909;SDS011;63189;51.240;9.964;2023-05-08T03:28:18;17.50;;;14.02;;
54909;SDS011;63189;51.240;9.964;2023-05-08T03:30:46;19.02;;;13.95;;
54909;SDS011;63189;51.240;9.964;2023-05-08T03:33:15;20.15;;;15.27;;
54909;SDS011;63189;51.240;9.964;2023-05-08T03:35:41;17.77;;;14.23;;
54909;SDS011;63189;51.240;9.964;2023-05-08T03:38:09;19.15;;;14.98;;
54909;SDS011;63189;51.240;9.964;2023-05-08T03:40:35;18.05;;;14.13;;
54909;SDS011;63189;51.240;9.964;2023-05-08T03:43:04;19.45;;;15.35;;
54909;SDS011;63189;51.240;9.964;2023-05-08T03:45:33;20.83;;;14.63;;
54909;SDS011;63189;51.240;9.964;2023-05-08T03:48:00;18.17;;;14.30;;
54909;SDS011;63189;51.240;9.964;2023-05-08T03:50:30;21.70;;;15.73;;
54909;SDS011;63189;51.240;9.964;2023-05-08T03:52:56;19.75;;;15.10;;
54909;SDS011;63189;51.240;9.964;2023-05-08T03:55:23;21.42;;;15.25;;
54909;SDS011;63189;51.240;9.964;2023-05-08T04:03:43;20.13;;;15.05;;
54909;SDS011;63189;51.240;9.964;2023-05-08T04:07:13;24.35;;;16.45;;
54909;SDS011;63189;51.240;9.964;2023-05-08T04:09:29;19.15;;;15.13;;
54909;SDS011;63189;51.240;9.964;2023-05-08T04:14:42;18.15;;;14.50;;
54909;SDS011;63189;51.240;9.964;2023-05-08T04:17:13;21.17;;;15.02;;
54909;SDS011;63189;51.240;9.964;2023-05-08T04:19:44;18.90;;;14.50;;
54909;SDS011;63189;51.240;9.964;2023-05-08T04:22:11;20.13;;;15.52;;
54909;SDS011;63189;51.240;9.964;2023-05-08T04:24:39;19.92;;;15.30;;
54909;SDS011;63189;51.240;9.964;2023-05-08T04:27:08;19.92;;;15.13;;
54909;SDS011;63189;51.240;9.964;2023-05-08T04:29:34;19.13;;;14.75;;
54909;SDS011;63189;51.240;9.964;2023-05-08T04:32:00;25.95;;;18.55;;
54909;SDS011;63189;51.240;9.964;2023-05-08T04:34:26;24.20;;;16.80;;
54909;SDS011;63189;51.240;9.964;2023-05-08T04:36:53;20.40;;;15.40;;
54909;SDS011;63189;51.240;9.964;2023-05-08T04:39:18;23.35;;;16.60;;
54909;SDS011;63189;51.240;9.964;2023-05-08T04:41:44;21.90;;;16.17;;
54909;SDS011;63189;51.240;9.964;2023-05-08T04:44:10;21.23;;;15.65;;
54909;SDS011;63189;51.240;9.964;2023-05-08T04:46:36;22.88;;;17.52;;
54909;SDS011;63189;51.240;9.964;2023-05-08T04:49:02;21.95;;;16.70;;
54909;SDS011;63189;51.240;9.964;2023-05-08T04:51:27;22.95;;;17.38;;
54909;SDS011;63189;51.240;9.964;2023-05-08T04:53:53;24.38;;;17.75;;
54909;SDS011;63189;51.240;9.964;2023-05-08T04:56:18;23.02;;;17.00;;
54909;SDS011;63189;51.240;9.964;2023-05-08T04:58:44;23.10;;;16.63;;
54909;SDS011;63189;51.240;9.964;2023-05-08T05:01:09;21.25;;;16.73;;
54909;SDS011;63189;51.240;9.964;2023-05-08T05:03:34;23.52;;;16.58;;
54909;SDS011;63189;51.240;9.964;2023-05-08T05:06:00;23.75;;;17.10;;
54909;SDS011;63189;51.240;9.964;2023-05-08T05:08:26;26.02;;;16.55;;
54909;SDS011;63189;51.240;9.964;2023-05-08T05:10:51;23.67;;;17.77;;
54909;SDS011;63189;51.240;9.964;2023-05-08T05:13:17;25.73;;;17.65;;
54909;SDS011;63189;51.240;9.964;2023-05-08T05:15:45;25.60;;;18.05;;
54909;SDS011;63189;51.240;9.964;2023-05-08T05:18:10;25.67;;;18.52;;
54909;SDS011;63189;51.240;9.964;2023-05-08T05:20:36;27.92;;;19.20;;
54909;SDS011;63189;51.240;9.964;2023-05-08T05:23:02;25.10;;;18.75;;
54909;SDS011;63189;51.240;9.964;2023-05-08T05:25:28;25.15;;;18.10;;
54909;SDS011;63189;51.240;9.964;2023-05-08T05:27:54;25.65;;;17.70;;
54909;SDS011;63189;51.240;9.964;2023-05-08T05:30:20;22.23;;;17.13;;
54909;SDS011;63189;51.240;9.964;2023-05-08T05:32:45;23.60;;;16.88;;
54909;SDS011;63189;51.240;9.964;2023-05-08T05:35:11;23.98;;;17.10;;
54909;SDS011;63189;51.240;9.964;2023-05-08T05:37:36;23.85;;;17.63;;
54909;SDS011;63189;51.240;9.964;2023-05-08T05:40:02;25.20;;;18.38;;
54909;SDS011;63189;51.240;9.964;2023-05-08T05:42:28;22.92;;;16.73;;
54909;SDS011;63189;51.240;9.964;2023-05-08T05:44:54;24.77;;;17.90;;
54909;SDS011;63189;51.240;9.964;2023-05-08T05:47:20;26.98;;;18.73;;
54909;SDS011;63189;51.240;9.964;2023-05-08T05:49:46;23.17;;;17.75;;
54909;SDS011;63189;51.240;9.964;2023-05-08T05:52:12;22.70;;;16.88;;
54909;SDS011;63189;51.240;9.964;2023-05-08T05:54:38;25.85;;;18.13;;
54909;SDS011;63189;51.240;9.964;2023-05-08T05:57:03;24.95;;;17.48;;
54909;SDS011;63189;51.240;9.964;2023-05-08T05:59:29;24.08;;;16.80;;
54909;SDS011;63189;51.240;9.964;2023-05-08T06:01:54;25.13;;;17.63;;
54909;SDS011;63189;51.240;9.964;2023-05-08T06:04:20;21.88;;;16.38;;
54909;SDS011;63189;51.240;9.964;2023-05-08T06:06:45;24.90;;;17.55;;
54909;SDS011;63189;51.240;9.964;2023-05-08T06:09:10;23.02;;;15.35;;
54909;SDS011;63189;51.240;9.964;2023-05-08T06:11:36;23.60;;;16.73;;
54909;SDS011;63189;51.240;9.964;2023-05-08T06:14:01;20.42;;;14.93;;
54909;SDS011;63189;51.240;9.964;2023-05-08T06:16:26;23.00;;;15.77;;
54909;SDS011;63189;51.240;9.964;2023-05-08T06:18:53;21.42;;;15.35;;
54909;SDS011;63189;51.240;9.964;2023-05-08T06:21:18;20.98;;;14.00;;
54909;SDS011;63189;51.240;9.964;2023-05-08T06:23:43;21.52;;;15.02;;
54909;SDS011;63189;51.240;9.964;2023-05-08T06:26:08;21.55;;;15.10;;
54909;SDS011;63189;51.240;9.964;2023-05-08T06:28:34;20.00;;;14.32;;
54909;SDS011;63189;51.240;9.964;2023-05-08T06:30:59;23.20;;;15.75;;
54909;SDS011;63189;51.240;9.964;2023-05-08T06:33:24;16.92;;;13.35;;
54909;SDS011;63189;51.240;9.964;2023-05-08T06:35:50;20.83;;;15.07;;
54909;SDS011;63189;51.240;9.964;2023-05-08T06:38:15;20.20;;;14.20;;
54909;SDS011;63189;51.240;9.964;2023-05-08T06:40:44;19.08;;;14.25;;
54909;SDS011;63189;51.240;9.964;2023-05-08T06:43:10;23.58;;;15.85;;
54909;SDS011;63189;51.240;9.964;2023-05-08T06:45:36;19.58;;;14.25;;
54909;SDS011;63189;51.240;9.964;2023-05-08T06:48:02;16.67;;;13.85;;
54909;SDS011;63189;51.240;9.964;2023-05-08T06:50:27;18.42;;;13.80;;
54909;SDS011;63189;51.240;9.964;2023-05-08T06:52:53;19.70;;;13.90;;
54909;SDS011;63189;51.240;9.964;2023-05-08T06:55:18;19.05;;;14.75;;
54909;SDS011;63189;51.240;9.964;2023-05-08T06:57:44;20.85;;;13.63;;
54909;SDS011;63189;51.240;9.964;2023-05-08T07:00:09;22.45;;;13.98;;
54909;SDS011;63189;51.240;9.964;2023-05-08T07:02:35;18.00;;;14.13;;
54909;SDS011;63189;51.240;9.964;2023-05-08T07:05:00;17.02;;;12.40;;
54909;SDS011;63189;51.240;9.964;2023-05-08T07:07:26;19.98;;;13.32;;
54909;SDS011;63189;51.240;9.964;2023-05-08T07:09:52;18.02;;;13.10;;
54909;SDS011;63189;51.240;9.964;2023-05-08T07:12:17;18.30;;;13.93;;
54909;SDS011;63189;51.240;9.964;2023-05-08T07:14:43;16.92;;;13.45;;
54909;SDS011;63189;51.240;9.964;2023-05-08T07:17:09;16.98;;;12.77;;
54909;SDS011;63189;51.240;9.964;2023-05-08T07:19:34;19.02;;;13.63;;
54909;SDS011;63189;51.240;9.964;2023-05-08T07:22:01;16.40;;;13.25;;
54909;SDS011;63189;51.240;9.964;2023-05-08T07:24:26;20.10;;;13.13;;
54909;SDS011;63189;51.240;9.964;2023-05-08T07:26:52;19.15;;;13.95;;
54909;SDS011;63189;51.240;9.964;2023-05-08T07:29:17;16.35;;;12.57;;
54909;SDS011;63189;51.240;9.964;2023-05-08T07:31:44;16.83;;;13.10;;
54909;SDS011;63189;51.240;9.964;2023-05-08T07:34:10;18.67;;;14.15;;
54909;SDS011;63189;51.240;9.964;2023-05-08T07:36:36;22.38;;;13.93;;
54909;SDS011;63189;51.240;9.964;2023-05-08T07:39:02;19.77;;;13.43;;
54909;SDS011;63189;51.240;9.964;2023-05-08T07:41:28;18.85;;;13.80;;
54909;SDS011;63189;51.240;9.964;2023-05-08T07:43:53;16.13;;;13.18;;
54909;SDS011;63189;51.240;9.964;2023-05-08T07:46:19;15.55;;;11.80;;
54909;SDS011;63189;51.240;9.964;2023-05-08T07:48:45;17.83;;;14.00;;
54909;SDS011;63189;51.240;9.964;2023-05-08T07:51:10;16.38;;;13.00;;
54909;SDS011;63189;51.240;9.964;2023-05-08T07:53:36;16.83;;;12.55;;
54909;SDS011;63189;51.240;9.964;2023-05-08T07:56:01;14.75;;;11.85;;
54909;SDS011;63189;51.240;9.964;2023-05-08T07:58:26;14.10;;;11.27;;
54909;SDS011;63189;51.240;9.964;2023-05-08T08:00:53;15.48;;;11.98;;
54909;SDS011;63189;51.240;9.964;2023-05-08T08:03:18;17.40;;;12.63;;
54909;SDS011;63189;51.240;9.964;2023-05-08T08:05:43;16.23;;;11.95;;
54909;SDS011;63189;51.240;9.964;2023-05-08T08:08:09;15.45;;;12.00;;
54909;SDS011;63189;51.240;9.964;2023-05-08T08:10:34;13.68;;;11.60;;
54909;SDS011;63189;51.240;9.964;2023-05-08T08:12:59;14.48;;;12.07;;
54909;SDS011;63189;51.240;9.964;2023-05-08T08:15:28;14.60;;;11.90;;
54909;SDS011;63189;51.240;9.964;2023-05-08T08:17:54;13.40;;;11.77;;
54909;SDS011;63189;51.240;9.964;2023-05-08T08:20:19;14.07;;;11.32;;
54909;SDS011;63189;51.240;9.964;2023-05-08T08:22:44;12.82;;;10.13;;
54909;SDS011;63189;51.240;9.964;2023-05-08T08:25:10;12.57;;;10.63;;
54909;SDS011;63189;51.240;9.964;2023-05-08T08:27:36;13.93;;;11.65;;
54909;SDS011;63189;51.240;9.964;2023-05-08T08:30:01;12.40;;;10.60;;
54909;SDS011;63189;51.240;9.964;2023-05-08T08:32:26;11.40;;;10.07;;
54909;SDS011;63189;51.240;9.964;2023-05-08T08:34:52;13.02;;;10.30;;
54909;SDS011;63189;51.240;9.964;2023-05-08T08:37:17;13.82;;;10.85;;
54909;SDS011;63189;51.240;9.964;2023-05-08T08:39:42;12.88;;;10.52;;
54909;SDS011;63189;51.240;9.964;2023-05-08T08:42:08;12.40;;;10.45;;
54909;SDS011;63189;51.240;9.964;2023-05-08T08:44:33;11.20;;;9.57;;
54909;SDS011;63189;51.240;9.964;2023-05-08T08:46:59;11.75;;;9.95;;
54909;SDS011;63189;51.240;9.964;2023-05-08T08:49:30;11.27;;;10.07;;
54909;SDS011;63189;51.240;9.964;2023-05-08T08:52:01;12.82;;;9.02;;
54909;SDS011;63189;51.240;9.964;2023-05-08T08:54:32;12.45;;;9.77;;
54909;SDS011;63189;51.240;9.964;2023-05-08T08:57:00;11.07;;;9.15;;
54909;SDS011;63189;51.240;9.964;2023-05-08T08:59:29;10.07;;;8.18;;
54909;SDS011;63189;51.240;9.964;2023-05-08T09:01:56;10.18;;;7.88;;
54909;SDS011;63189;51.240;9.964;2023-05-08T09:04:25;9.82;;;8.32;;
54909;SDS011;63189;51.240;9.964;2023-05-08T09:06:51;8.85;;;7.60;;
54909;SDS011;63189;51.240;9.964;2023-05-08T09:09:17;10.77;;;9.50;;
54909;SDS011;63189;51.240;9.964;2023-05-08T09:11:45;10.23;;;8.68;;
54909;SDS011;63189;51.240;9.964;2023-05-08T09:14:10;11.50;;;7.82;;
54909;SDS011;63189;51.240;9.964;2023-05-08T09:16:36;10.20;;;8.73;;
54909;SDS011;63189;51.240;9.964;2023-05-08T09:19:01;16.23;;;8.95;;
54909;SDS011;63189;51.240;9.964;2023-05-08T09:21:27;10.98;;;9.48;;
54909;SDS011;63189;51.240;9.964;2023-05-08T09:23:53;9.63;;;8.68;;
54909;SDS011;63189;51.240;9.964;2023-05-08T09:26:32;13.80;;;8.73;;
54909;SDS011;63189;51.240;9.964;2023-05-08T09:31:35;10.93;;;8.65;;
54909;SDS011;63189;51.240;9.964;2023-05-08T09:34:04;10.55;;;9.00;;
54909;SDS011;63189;51.240;9.964;2023-05-08T09:36:30;12.77;;;9.55;;
54909;SDS011;63189;51.240;9.964;2023-05-08T09:38:56;10.05;;;8.70;;
54909;SDS011;63189;51.240;9.964;2023-05-08T09:41:22;10.82;;;8.57;;
54909;SDS011;63189;51.240;9.964;2023-05-08T09:44:04;8.60;;;7.45;;
54909;SDS011;63189;51.240;9.964;2023-05-08T09:46:31;10.23;;;8.63;;
54909;SDS011;63189;51.240;9.964;2023-05-08T09:49:00;10.43;;;8.30;;
54909;SDS011;63189;51.240;9.964;2023-05-08T09:51:28;7.78;;;6.63;;
54909;SDS011;63189;51.240;9.964;2023-05-08T09:53:55;11.40;;;8.27;;
54909;SDS011;63189;51.240;9.964;2023-05-08T09:56:35;7.20;;;6.50;;
54909;SDS011;63189;51.240;9.964;2023-05-08T09:59:03;9.52;;;7.90;;
54909;SDS011;63189;51.240;9.964;2023-05-08T10:03:59;7.25;;;6.53;;
54909;SDS011;63189;51.240;9.964;2023-05-08T10:06:25;9.05;;;8.13;;
54909;SDS011;63189;51.240;9.964;2023-05-08T10:09:05;11.55;;;7.90;;
54909;SDS011;63189;51.240;9.964;2023-05-08T10:11:31;10.90;;;8.77;;
54909;SDS011;63189;51.240;9.964;2023-05-08T10:13:57;10.07;;;8.32;;
54909;SDS011;63189;51.240;9.964;2023-05-08T10:16:22;8.68;;;7.78;;
54909;SDS011;63189;51.240;9.964;2023-05-08T10:18:52;8.77;;;6.70;;
54909;SDS011;63189;51.240;9.964;2023-05-08T10:21:24;7.70;;;6.72;;
54909;SDS011;63189;51.240;9.964;2023-05-08T10:23:53;8.02;;;6.75;;
54909;SDS011;63189;51.240;9.964;2023-05-08T10:26:26;8.32;;;6.60;;
54909;SDS011;63189;51.240;9.964;2023-05-08T10:28:54;7.55;;;5.30;;
54909;SDS011;63189;51.240;9.964;2023-05-08T10:31:23;6.15;;;5.30;;
54909;SDS011;63189;51.240;9.964;2023-05-08T10:33:53;6.63;;;5.15;;
54909;SDS011;63189;51.240;9.964;2023-05-08T10:36:20;6.15;;;5.00;;
54909;SDS011;63189;51.240;9.964;2023-05-08T10:38:48;8.55;;;5.68;;
54909;SDS011;63189;51.240;9.964;2023-05-08T10:41:14;5.75;;;5.00;;
54909;SDS011;63189;51.240;9.964;2023-05-08T10:43:40;8.80;;;5.05;;
54909;SDS011;63189;51.240;9.964;2023-05-08T10:46:08;6.85;;;5.32;;
54909;SDS011;63189;51.240;9.964;2023-05-08T10:57:09;5.88;;;5.28;;
54909;SDS011;63189;51.240;9.964;2023-05-08T10:59:36;7.50;;;5.90;;
54909;SDS011;63189;51.240;9.964;2023-05-08T11:02:05;8.30;;;6.47;;
54909;SDS011;63189;51.240;9.964;2023-05-08T11:04:31;8.55;;;6.75;;
54909;SDS011;63189;51.240;9.964;2023-05-08T11:06:57;6.53;;;5.82;;
54909;SDS011;63189;51.240;9.964;2023-05-08T11:09:27;6.88;;;5.78;;
54909;SDS011;63189;51.240;9.964;2023-05-08T11:12:07;7.70;;;5.93;;
54909;SDS011;63189;51.240;9.964;2023-05-08T11:14:43;5.97;;;5.38;;
54909;SDS011;63189;51.240;9.964;2023-05-08T11:17:35;6.60;;;5.55;;
54909;SDS011;63189;51.240;9.964;2023-05-08T11:20:04;6.03;;;5.43;;
54909;SDS011;63189;51.240;9.964;2023-05-08T11:22:31;7.15;;;6.45;;
54909;SDS011;63189;51.240;9.964;2023-05-08T11:35:53;6.15;;;5.53;;
54909;SDS011;63189;51.240;9.964;2023-05-08T11:46:03;5.90;;;4.72;;
54909;SDS011;63189;51.240;9.964;2023-05-08T11:48:32;6.70;;;5.63;;
54909;SDS011;63189;51.240;9.964;2023-05-08T11:50:58;8.25;;;6.95;;
54909;SDS011;63189;51.240;9.964;2023-05-08T11:53:24;6.68;;;6.05;;
54909;SDS011;63189;51.240;9.964;2023-05-08T11:55:53;7.65;;;6.68;;
54909;SDS011;63189;51.240;9.964;2023-05-08T11:58:19;8.77;;;6.30;;
54909;SDS011;63189;51.240;9.964;2023-05-08T12:00:46;6.53;;;5.93;;
54909;SDS011;63189;51.240;9.964;2023-05-08T12:03:16;8.00;;;6.47;;
54909;SDS011;63189;51.240;9.964;2023-05-08T12:05:44;11.05;;;7.47;;
54909;SDS011;63189;51.240;9.964;2023-05-08T12:08:11;9.23;;;7.93;;
54909;SDS011;63189;51.240;9.964;2023-05-08T12:13:22;7.35;;;6.43;;
54909;SDS011;63189;51.240;9.964;2023-05-08T12:15:48;8.30;;;5.95;;
54909;SDS011;63189;51.240;9.964;2023-05-08T12:18:15;8.15;;;7.07;;
54909;SDS011;63189;51.240;9.964;2023-05-08T12:20:41;8.77;;;7.40;;
54909;SDS011;63189;51.240;9.964;2023-05-08T12:23:07;10.05;;;8.15;;
54909;SDS011;63189;51.240;9.964;2023-05-08T12:25:35;8.15;;;6.88;;
54909;SDS011;63189;51.240;9.964;2023-05-08T12:28:01;11.93;;;7.50;;
54909;SDS011;63189;51.240;9.964;2023-05-08T12:30:27;9.70;;;7.72;;
54909;SDS011;63189;51.240;9.964;2023-05-08T12:32:53;9.82;;;8.05;;
54909;SDS011;63189;51.240;9.964;2023-05-08T12:35:19;9.38;;;7.93;;
54909;SDS011;63189;51.240;9.964;2023-05-08T12:37:44;8.80;;;7.80;;
54909;SDS011;63189;51.240;9.964;2023-05-08T12:40:27;8.98;;;7.40;;
54909;SDS011;63189;51.240;9.964;2023-05-08T12:42:53;9.60;;;7.82;;
54909;SDS011;63189;51.240;9.964;2023-05-08T12:45:26;9.25;;;8.30;;
54909;SDS011;63189;51.240;9.964;2023-05-08T12:47:53;9.88;;;8.00;;
54909;SDS011;63189;51.240;9.964;2023-05-08T12:50:23;7.82;;;6.70;;
54909;SDS011;63189;51.240;9.964;2023-05-08T12:52:50;8.90;;;6.35;;
54909;SDS011;63189;51.240;9.964;2023-05-08T12:55:24;11.50;;;6.38;;
54909;SDS011;63189;51.240;9.964;2023-05-08T12:57:57;8.63;;;7.68;;
54909;SDS011;63189;51.240;9.964;2023-05-08T13:00:40;8.32;;;6.72;;
54909;SDS011;63189;51.240;9.964;2023-05-08T13:03:21;7.35;;;5.60;;
54909;SDS011;63189;51.240;9.964;2023-05-08T13:05:51;10.32;;;6.22;;
54909;SDS011;63189;51.240;9.964;2023-05-08T13:08:18;8.82;;;6.50;;
54909;SDS011;63189;51.240;9.964;2023-05-08T13:10:48;8.07;;;6.18;;
54909;SDS011;63189;51.240;9.964;2023-05-08T13:15:43;7.65;;;6.50;;
54909;SDS011;63189;51.240;9.964;2023-05-08T13:18:09;6.85;;;5.10;;
54909;SDS011;63189;51.240;9.964;2023-05-08T13:20:35;7.07;;;5.72;;
54909;SDS011;63189;51.240;9.964;2023-05-08T13:23:01;6.63;;;5.50;;
54909;SDS011;63189;51.240;9.964;2023-05-08T13:25:27;6.50;;;5.85;;
54909;SDS011;63189;51.240;9.964;2023-05-08T13:27:53;6.60;;;5.03;;
54909;SDS011;63189;51.240;9.964;2023-05-08T13:30:19;6.82;;;5.22;;
54909;SDS011;63189;51.240;9.964;2023-05-08T13:32:46;7.75;;;6.07;;
54909;SDS011;63189;51.240;9.964;2023-05-08T13:35:12;8.05;;;5.78;;
54909;SDS011;63189;51.240;9.964;2023-05-08T13:37:37;5.57;;;4.72;;
54909;SDS011;63189;51.240;9.964;2023-05-08T13:40:03;5.55;;;4.38;;
54909;SDS011;63189;51.240;9.964;2023-05-08T13:42:29;6.20;;;5.60;;
54909;SDS011;63189;51.240;9.964;2023-05-08T13:44:54;7.28;;;6.20;;
54909;SDS011;63189;51.240;9.964;2023-05-08T13:47:19;6.20;;;5.10;;
54909;SDS011;63189;51.240;9.964;2023-05-08T13:49:45;4.53;;;4.07;;
54909;SDS011;63189;51.240;9.964;2023-05-08T13:52:11;6.32;;;5.18;;
54909;SDS011;63189;51.240;9.964;2023-05-08T13:54:36;8.48;;;6.75;;
54909;SDS011;63189;51.240;9.964;2023-05-08T13:57:02;6.40;;;5.50;;
54909;SDS011;63189;51.240;9.964;2023-05-08T13:59:27;8.10;;;4.88;;
54909;SDS011;63189;51.240;9.964;2023-05-08T14:01:55;5.70;;;4.60;;
54909;SDS011;63189;51.240;9.964;2023-05-08T14:04:20;6.22;;;4.20;;
54909;SDS011;63189;51.240;9.964;2023-05-08T14:06:45;5.80;;;4.15;;
54909;SDS011;63189;51.240;9.964;2023-05-08T14:09:11;7.30;;;5.25;;
54909;SDS011;63189;51.240;9.964;2023-05-08T14:11:36;5.82;;;3.72;;
54909;SDS011;63189;51.240;9.964;2023-05-08T14:14:01;6.07;;;3.95;;
54909;SDS011;63189;51.240;9.964;2023-05-08T14:16:27;5.63;;;5.00;;
54909;SDS011;63189;51.240;9.964;2023-05-08T14:18:53;4.70;;;4.25;;
54909;SDS011;63189;51.240;9.964;2023-05-08T14:21:18;4.82;;;4.07;;
54909;SDS011;63189;51.240;9.964;2023-05-08T14:23:43;6.70;;;3.88;;
54909;SDS011;63189;51.240;9.964;2023-05-08T14:26:09;4.95;;;4.30;;
54909;SDS011;63189;51.240;9.964;2023-05-08T14:28:34;4.60;;;3.92;;
54909;SDS011;63189;51.240;9.964;2023-05-08T14:30:59;4.47;;;3.78;;
54909;SDS011;63189;51.240;9.964;2023-05-08T14:33:25;5.13;;;4.10;;
54909;SDS011;63189;51.240;9.964;2023-05-08T14:35:50;6.72;;;4.10;;
54909;SDS011;63189;51.240;9.964;2023-05-08T14:38:16;4.88;;;3.28;;
54909;SDS011;63189;51.240;9.964;2023-05-08T14:40:41;3.80;;;3.33;;
54909;SDS011;63189;51.240;9.964;2023-05-08T14:43:06;4.70;;;3.67;;
54909;SDS011;63189;51.240;9.964;2023-05-08T14:45:32;4.70;;;4.07;;
54909;SDS011;63189;51.240;9.964;2023-05-08T14:47:57;4.78;;;3.42;;
54909;SDS011;63189;51.240;9.964;2023-05-08T14:50:22;6.35;;;3.42;;
54909;SDS011;63189;51.240;9.964;2023-05-08T14:52:48;4.13;;;3.72;;
54909;SDS011;63189;51.240;9.964;2023-05-08T14:55:14;4.25;;;3.40;;
54909;SDS011;63189;51.240;9.964;2023-05-08T14:57:47;5.75;;;3.42;;
54909;SDS011;63189;51.240;9.964;2023-05-08T15:00:14;5.85;;;3.63;;
54909;SDS011;63189;51.240;9.964;2023-05-08T15:02:41;3.90;;;3.22;;
54909;SDS011;63189;51.240;9.964;2023-05-08T15:05:08;6.28;;;4.22;;
54909;SDS011;63189;51.240;9.964;2023-05-08T15:07:34;3.75;;;3.30;;
54909;SDS011;63189;51.240;9.964;2023-05-08T15:10:01;5.70;;;3.38;;
54909;SDS011;63189;51.240;9.964;2023-05-08T15:12:27;5.68;;;3.95;;
54909;SDS011;63189;51.240;9.964;2023-05-08T15:14:52;7.53;;;3.97;;
54909;SDS011;63189;51.240;9.964;2023-05-08T15:17:18;4.70;;;3.58;;
54909;SDS011;63189;51.240;9.964;2023-05-08T15:19:43;5.15;;;4.05;;
54909;SDS011;63189;51.240;9.964;2023-05-08T15:22:10;5.18;;;3.28;;
54909;SDS011;63189;51.240;9.964;2023-05-08T15:24:35;5.80;;;3.67;;
54909;SDS011;63189;51.240;9.964;2023-05-08T15:27:01;5.28;;;4.07;;
54909;SDS011;63189;51.240;9.964;2023-05-08T15:29:26;5.88;;;4.35;;
54909;SDS011;63189;51.240;9.964;2023-05-08T15:31:52;6.85;;;4.63;;
54909;SDS011;63189;51.240;9.964;2023-05-08T15:34:17;4.57;;;3.72;;
54909;SDS011;63189;51.240;9.964;2023-05-08T15:36:42;5.35;;;4.32;;
54909;SDS011;63189;51.240;9.964;2023-05-08T15:39:08;3.95;;;3.40;;
54909;SDS011;63189;51.240;9.964;2023-05-08T15:41:34;4.32;;;3.45;;
54909;SDS011;63189;51.240;9.964;2023-05-08T15:44:04;4.57;;;4.18;;
54909;SDS011;63189;51.240;9.964;2023-05-08T15:46:30;6.15;;;4.07;;